Time,TemperatureF,DewpointF,PressureIn,WindDirection,WindDirectionDegrees,WindSpeedMPH,WindSpeedGustMPH,Humidity,HourlyPrecipIn,Conditions,Clouds,dailyrainin,SoftwareType,DateUTC
2013-01-18 00:01:00,22.5,15.9,30.41,SW,233,0.0,0.0,75,0.00,,---,0.00,VWS V14.01,2013-01-18 06:01:00,
2013-01-18 00:06:00,22.7,16.1,30.41,SW,233,0.0,0.0,75,0.00,,---,0.00,VWS V14.01,2013-01-18 06:06:00,
2013-01-18 00:11:00,22.9,16.3,30.41,West,269,0.0,0.0,75,0.00,,---,0.00,VWS V14.01,2013-01-18 06:11:00,
2013-01-18 00:16:00,22.9,16.3,30.41,West,269,0.0,0.0,75,0.00,,---,0.00,VWS V14.01,2013-01-18 06:16:00,
2013-01-18 00:21:00,22.9,16.3,30.41,West,269,0.0,0.0,75,0.00,,---,0.00,VWS V14.01,2013-01-18 06:21:00,
2013-01-18 00:26:00,22.9,16.3,30.41,SW,226,0.0,0.0,75,0.00,,---,0.00,VWS V14.01,2013-01-18 06:26:00,
2013-01-18 00:31:00,22.9,16.3,30.41,SW,228,0.0,0.0,75,0.00,,---,0.00,VWS V14.01,2013-01-18 06:31:00,
2013-01-18 00:36:00,22.9,16.3,30.41,SW,224,0.0,0.0,75,0.00,,---,0.00,VWS V14.01,2013-01-18 06:36:00,
2013-01-18 00:41:00,22.9,16.3,30.41,SW,225,0.0,0.0,75,0.00,,---,0.00,VWS V14.01,2013-01-18 06:41:00,
2013-01-18 00:46:00,22.9,16.6,30.41,SW,224,0.0,0.0,76,0.00,,---,0.00,VWS V14.01,2013-01-18 06:46:00,
2013-01-18 00:51:00,23.0,16.7,30.41,SW,225,0.0,0.0,76,0.00,,---,0.00,VWS V14.01,2013-01-18 06:51:00,
2013-01-18 00:56:00,23.0,16.7,30.40,SW,224,0.0,0.0,76,0.00,,---,0.00,VWS V14.01,2013-01-18 06:56:00,
2013-01-18 01:01:00,23.0,16.7,30.41,SW,225,0.0,0.0,76,0.00,,---,0.00,VWS V14.01,2013-01-18 07:01:00,
2013-01-18 01:06:00,23.0,16.7,30.41,SW,225,0.0,0.0,76,0.00,,---,0.00,VWS V14.01,2013-01-18 07:06:00,
2013-01-18 01:11:00,22.9,16.6,30.41,SW,225,0.0,0.0,76,0.00,,---,0.00,VWS V14.01,2013-01-18 07:11:00,
2013-01-18 01:16:00,22.8,16.5,30.41,SW,225,0.0,0.0,76,0.00,,---,0.00,VWS V14.01,2013-01-18 07:16:00,
2013-01-18 01:48:00,23.2,16.6,30.41,SW,217,0.0,0.0,75,0.00,,---,0.00,VWS V14.01,2013-01-18 07:48:00,
2013-01-18 01:53:00,23.4,16.8,30.41,SW,217,0.0,0.0,75,0.00,,---,0.00,VWS V14.01,2013-01-18 07:53:00,
2013-01-18 01:58:00,23.6,16.7,30.41,SW,217,0.0,0.0,74,0.00,,---,0.00,VWS V14.01,2013-01-18 07:58:00,
2013-01-18 02:03:00,23.7,16.8,30.41,SW,217,0.0,0.0,74,0.00,,---,0.00,VWS V14.01,2013-01-18 08:03:00,
2013-01-18 02:08:00,23.8,17.1,30.41,SW,217,0.0,0.0,75,0.00,,---,0.00,VWS V14.01,2013-01-18 08:08:00,
2013-01-18 02:13:00,23.9,17.0,30.41,SW,217,0.0,0.0,74,0.00,,---,0.00,VWS V14.01,2013-01-18 08:13:00,
2013-01-18 02:18:00,23.9,17.0,30.41,SW,217,0.0,0.0,74,0.00,,---,0.00,VWS V14.01,2013-01-18 08:18:00,
2013-01-18 02:23:00,24.0,17.0,30.40,SW,217,0.0,0.0,74,0.00,,---,0.00,VWS V14.01,2013-01-18 08:23:00,
2013-01-18 02:28:00,24.1,17.1,30.40,SW,217,0.0,0.0,74,0.00,,---,0.00,VWS V14.01,2013-01-18 08:28:00,
2013-01-18 02:33:00,24.1,17.1,30.40,SW,217,0.0,0.0,74,0.00,,---,0.00,VWS V14.01,2013-01-18 08:33:00,
2013-01-18 02:38:00,24.0,17.3,30.40,SW,217,0.0,0.0,75,0.00,,---,0.00,VWS V14.01,2013-01-18 08:38:00,
2013-01-18 02:43:00,23.8,17.1,30.40,SW,217,0.0,0.0,75,0.00,,---,0.00,VWS V14.01,2013-01-18 08:43:00,
2013-01-18 02:48:00,23.5,16.9,30.40,SW,217,0.0,0.0,75,0.00,,---,0.00,VWS V14.01,2013-01-18 08:48:00,
2013-01-18 02:53:00,23.3,17.0,30.40,SW,217,0.0,0.0,76,0.00,,---,0.00,VWS V14.01,2013-01-18 08:53:00,
2013-01-18 02:58:00,22.9,16.6,30.40,SW,217,0.0,0.0,76,0.00,,---,0.00,VWS V14.01,2013-01-18 08:58:00,
2013-01-18 03:03:00,22.5,16.5,30.40,SW,217,0.0,0.0,77,0.00,,---,0.00,VWS V14.01,2013-01-18 09:03:00,
2013-01-18 03:08:00,22.2,16.4,30.39,SSW,202,0.0,0.0,78,0.00,,---,0.00,VWS V14.01,2013-01-18 09:08:00,
2013-01-18 03:13:00,21.9,16.4,30.39,SSW,201,0.0,0.0,79,0.00,,---,0.00,VWS V14.01,2013-01-18 09:13:00,
2013-01-18 03:18:00,21.7,16.5,30.38,SSW,203,0.0,0.0,80,0.00,,---,0.00,VWS V14.01,2013-01-18 09:18:00,
2013-01-18 03:23:00,21.7,16.5,30.38,SSW,203,0.0,0.0,80,0.00,,---,0.00,VWS V14.01,2013-01-18 09:23:00,
2013-01-18 03:28:00,21.9,16.7,30.38,SSW,201,0.0,0.0,80,0.00,,---,0.00,VWS V14.01,2013-01-18 09:28:00,
2013-01-18 03:33:00,22.1,16.9,30.38,SSW,201,0.0,0.0,80,0.00,,---,0.00,VWS V14.01,2013-01-18 09:33:00,
2013-01-18 03:38:00,22.4,17.2,30.37,South,179,0.0,1.8,80,0.00,,---,0.00,VWS V14.01,2013-01-18 09:38:00,
2013-01-18 03:43:00,22.6,17.4,30.37,South,181,0.0,0.0,80,0.00,,---,0.00,VWS V14.01,2013-01-18 09:43:00,
2013-01-18 03:48:00,22.8,17.6,30.37,South,179,0.0,0.0,80,0.00,,---,0.00,VWS V14.01,2013-01-18 09:48:00,
2013-01-18 03:53:00,23.0,17.5,30.37,South,181,0.0,0.0,79,0.00,,---,0.00,VWS V14.01,2013-01-18 09:53:00,
2013-01-18 03:58:00,23.2,17.7,30.37,SW,231,0.0,0.0,79,0.00,,---,0.00,VWS V14.01,2013-01-18 09:58:00,
2013-01-18 04:03:00,23.4,17.9,30.37,SSW,198,0.0,1.8,79,0.00,,---,0.00,VWS V14.01,2013-01-18 10:03:00,
2013-01-18 04:09:00,23.7,18.2,30.37,ESE,110,0.0,1.8,79,0.00,,---,0.00,VWS V14.01,2013-01-18 10:09:00,
2013-01-18 04:14:00,23.9,18.1,30.36,SW,218,0.0,3.6,78,0.00,,---,0.00,VWS V14.01,2013-01-18 10:14:00,
2013-01-18 04:19:00,24.1,18.3,30.36,ESE,115,0.0,1.8,78,0.00,,---,0.00,VWS V14.01,2013-01-18 10:19:00,
2013-01-18 04:24:00,24.2,18.1,30.36,SW,228,7.2,7.2,77,0.00,,---,0.00,VWS V14.01,2013-01-18 10:24:00,
2013-01-18 04:29:00,24.4,18.3,30.35,SE,129,0.0,3.6,77,0.00,,---,0.00,VWS V14.01,2013-01-18 10:29:00,
2013-01-18 04:34:00,24.6,18.2,30.35,SW,217,1.8,7.2,76,0.00,,---,0.00,VWS V14.01,2013-01-18 10:34:00,
2013-01-18 04:39:00,24.8,18.4,30.35,SSE,150,0.0,3.6,76,0.00,,---,0.00,VWS V14.01,2013-01-18 10:39:00,
2013-01-18 04:44:00,24.9,18.2,30.35,ESE,113,1.8,9.0,75,0.00,,---,0.00,VWS V14.01,2013-01-18 10:44:00,
2013-01-18 04:49:00,25.1,18.4,30.35,South,179,3.6,9.0,75,0.00,,---,0.00,VWS V14.01,2013-01-18 10:49:00,
2013-01-18 04:54:00,25.2,18.5,30.35,SW,218,0.0,3.6,75,0.00,,---,0.00,VWS V14.01,2013-01-18 10:54:00,
2013-01-18 04:59:00,25.2,18.5,30.35,SW,222,0.0,3.6,75,0.00,,---,0.00,VWS V14.01,2013-01-18 10:59:00,
2013-01-18 05:04:00,25.1,18.4,30.35,SW,215,1.8,5.4,75,0.00,,---,0.00,VWS V14.01,2013-01-18 11:04:00,
2013-01-18 05:09:00,25.2,18.5,30.35,SW,228,1.8,9.0,75,0.00,,---,0.00,VWS V14.01,2013-01-18 11:09:00,
2013-01-18 05:14:00,25.3,18.6,30.34,WSW,250,3.6,5.4,75,0.00,,---,0.00,VWS V14.01,2013-01-18 11:14:00,
2013-01-18 05:19:00,25.4,18.7,30.34,South,169,3.6,9.0,75,0.00,,---,0.00,VWS V14.01,2013-01-18 11:19:00,
2013-01-18 05:24:00,25.5,18.8,30.34,SE,144,1.8,5.4,75,0.00,,---,0.00,VWS V14.01,2013-01-18 11:24:00,
2013-01-18 05:29:00,25.5,18.8,30.34,ESE,117,0.0,3.6,75,0.00,,---,0.00,VWS V14.01,2013-01-18 11:29:00,
2013-01-18 05:34:00,25.5,18.8,30.34,WSW,238,1.8,1.8,75,0.00,,---,0.00,VWS V14.01,2013-01-18 11:34:00,
2013-01-18 05:39:00,25.5,18.8,30.33,SSW,195,1.8,3.6,75,0.00,,---,0.00,VWS V14.01,2013-01-18 11:39:00,
2013-01-18 05:44:00,25.5,18.8,30.33,ESE,102,0.0,3.6,75,0.00,,---,0.00,VWS V14.01,2013-01-18 11:44:00,
2013-01-18 05:49:00,25.5,18.8,30.33,ESE,113,0.0,3.6,75,0.00,,---,0.00,VWS V14.01,2013-01-18 11:49:00,
2013-01-18 05:54:00,25.5,18.8,30.33,SSE,153,0.0,0.0,75,0.00,,---,0.00,VWS V14.01,2013-01-18 11:54:00,
2013-01-18 05:59:00,25.5,19.1,30.33,SSE,154,0.0,0.0,76,0.00,,---,0.00,VWS V14.01,2013-01-18 11:59:00,
2013-01-18 06:04:00,25.5,19.1,30.33,SE,132,0.0,3.6,76,0.00,,---,0.00,VWS V14.01,2013-01-18 12:04:00,
2013-01-18 06:09:00,25.6,19.2,30.33,SSW,201,7.2,7.2,76,0.00,,---,0.00,VWS V14.01,2013-01-18 12:09:00,
2013-01-18 06:14:00,25.8,19.1,30.32,ESE,108,0.0,7.2,75,0.00,,---,0.00,VWS V14.01,2013-01-18 12:14:00,
2013-01-18 06:19:00,25.9,19.2,30.32,SW,217,1.8,5.4,75,0.00,,---,0.00,VWS V14.01,2013-01-18 12:19:00,
2013-01-18 06:24:00,26.1,19.1,30.32,SW,232,3.6,7.2,74,0.00,,---,0.00,VWS V14.01,2013-01-18 12:24:00,
2013-01-18 06:29:00,26.3,19.3,30.32,SSW,211,3.6,7.2,74,0.00,,---,0.00,VWS V14.01,2013-01-18 12:29:00,
2013-01-18 06:34:00,26.5,19.2,30.31,WSW,250,3.6,9.0,73,0.00,,---,0.00,VWS V14.01,2013-01-18 12:34:00,
2013-01-18 06:39:00,26.6,19.3,30.31,SW,217,0.0,10.8,73,0.00,,---,0.00,VWS V14.01,2013-01-18 12:39:00,
2013-01-18 06:44:00,26.6,19.3,30.31,South,172,5.4,7.2,73,0.00,,---,0.00,VWS V14.01,2013-01-18 12:44:00,
2013-01-18 06:49:00,26.6,19.6,30.31,SW,214,3.6,7.2,74,0.00,,---,0.00,VWS V14.01,2013-01-18 12:49:00,
2013-01-18 06:54:00,26.6,19.6,30.30,SSW,201,9.0,10.8,74,0.00,,---,0.00,VWS V14.01,2013-01-18 12:54:00,
2013-01-18 06:59:00,26.6,19.6,30.30,SSE,161,0.0,7.2,74,0.00,,---,0.00,VWS V14.01,2013-01-18 12:59:00,
2013-01-18 07:04:00,26.7,19.7,30.30,ESE,105,1.8,10.8,74,0.00,,---,0.00,VWS V14.01,2013-01-18 13:04:00,
2013-01-18 07:09:00,26.7,19.7,30.29,SSE,152,5.4,12.6,74,0.00,,---,0.00,VWS V14.01,2013-01-18 13:09:00,
2013-01-18 07:14:00,26.7,19.7,30.29,East,92,1.8,12.6,74,0.00,,---,0.00,VWS V14.01,2013-01-18 13:14:00,
2013-01-18 07:19:00,26.6,19.6,30.28,SSW,195,3.6,10.8,74,0.00,,---,0.00,VWS V14.01,2013-01-18 13:19:00,
2013-01-18 07:24:00,26.6,19.9,30.28,SW,219,5.4,12.6,75,0.00,,---,0.00,VWS V14.01,2013-01-18 13:24:00,
2013-01-18 07:29:00,26.6,19.9,30.28,SSW,205,5.4,10.8,75,0.00,,---,0.00,VWS V14.01,2013-01-18 13:29:00,
2013-01-18 07:34:00,26.6,19.9,30.28,SSW,205,5.4,14.4,75,0.00,,---,0.00,VWS V14.01,2013-01-18 13:34:00,
2013-01-18 07:39:00,26.6,19.9,30.28,South,187,1.8,9.0,75,0.00,,---,0.00,VWS V14.01,2013-01-18 13:39:00,
2013-01-18 07:44:00,26.6,20.1,30.28,SSW,210,3.6,10.8,76,0.00,,---,0.00,VWS V14.01,2013-01-18 13:44:00,
2013-01-18 07:49:00,26.7,20.2,30.28,South,191,3.6,9.0,76,0.00,,---,0.00,VWS V14.01,2013-01-18 13:49:00,
2013-01-18 07:54:00,27.0,20.5,30.28,SSW,212,1.8,9.0,76,0.00,,---,0.00,VWS V14.01,2013-01-18 13:54:00,
2013-01-18 07:59:00,27.6,20.8,30.28,SSW,195,12.6,14.4,75,0.00,,---,0.00,VWS V14.01,2013-01-18 13:59:00,
2013-01-18 08:04:00,28.2,21.1,30.28,SSW,201,7.2,14.4,74,0.00,,---,0.00,VWS V14.01,2013-01-18 14:04:00,
2013-01-18 08:09:00,28.7,21.0,30.27,SSW,205,9.0,18.0,73,0.00,,---,0.00,VWS V14.01,2013-01-18 14:09:00,
2013-01-18 08:14:00,29.2,21.2,30.27,South,183,10.8,14.4,72,0.00,,---,0.00,VWS V14.01,2013-01-18 14:14:00,
2013-01-18 08:19:00,29.5,21.5,30.26,South,172,5.4,19.8,72,0.00,,---,0.00,VWS V14.01,2013-01-18 14:19:00,
2013-01-18 08:24:00,29.7,21.4,30.26,SSW,197,7.2,16.2,71,0.00,,---,0.00,VWS V14.01,2013-01-18 14:24:00,
2013-01-18 08:29:00,30.0,21.6,30.26,SW,215,7.2,14.4,71,0.00,,---,0.00,VWS V14.01,2013-01-18 14:29:00,
2013-01-18 08:34:00,30.2,21.5,30.25,SSW,197,9.0,21.6,70,0.00,,---,0.00,VWS V14.01,2013-01-18 14:34:00,
2013-01-18 08:39:00,30.4,21.7,30.25,South,176,10.8,19.8,70,0.00,,---,0.00,VWS V14.01,2013-01-18 14:39:00,
2013-01-18 08:44:00,30.6,21.6,30.25,SSW,193,14.4,16.2,69,0.00,,---,0.00,VWS V14.01,2013-01-18 14:44:00,
2013-01-18 08:49:00,30.9,21.9,30.25,SSW,201,9.0,18.0,69,0.00,,---,0.00,VWS V14.01,2013-01-18 14:49:00,
2013-01-18 08:54:00,31.4,22.4,30.25,South,181,3.6,19.8,69,0.00,,---,0.00,VWS V14.01,2013-01-18 14:54:00,
2013-01-18 08:59:00,31.7,22.3,30.25,SSW,211,10.8,19.8,68,0.00,,---,0.00,VWS V14.01,2013-01-18 14:59:00,
2013-01-18 09:04:00,32.0,22.6,30.25,NW,321,3.6,16.2,68,0.00,,---,0.00,VWS V14.01,2013-01-18 15:04:00,
2013-01-18 09:09:00,32.2,22.8,30.24,West,259,14.4,19.8,68,0.00,,---,0.00,VWS V14.01,2013-01-18 15:09:00,
2013-01-18 09:14:00,32.4,22.7,30.24,SSW,204,9.0,27.0,67,0.00,,---,0.00,VWS V14.01,2013-01-18 15:14:00,
2013-01-18 09:19:00,32.5,22.8,30.24,SW,232,12.6,28.8,67,0.00,,---,0.00,VWS V14.01,2013-01-18 15:19:00,
2013-01-18 09:24:00,32.8,23.0,30.24,WNW,289,5.4,27.0,67,0.00,,---,0.00,VWS V14.01,2013-01-18 15:24:00,
2013-01-18 09:29:00,33.0,22.9,30.23,SSW,197,5.4,21.6,66,0.00,,---,0.00,VWS V14.01,2013-01-18 15:29:00,
2013-01-18 09:34:00,33.1,23.0,30.23,SSW,203,16.2,23.4,66,0.00,,---,0.00,VWS V14.01,2013-01-18 15:34:00,
2013-01-18 09:39:00,33.3,23.5,30.23,West,278,5.4,19.8,67,0.00,,---,0.00,VWS V14.01,2013-01-18 15:39:00,
2013-01-18 09:44:00,33.5,23.4,30.22,SW,215,12.6,25.2,66,0.00,,---,0.00,VWS V14.01,2013-01-18 15:44:00,
2013-01-18 09:49:00,33.7,23.6,30.22,SSW,195,7.2,32.4,66,0.00,,---,0.00,VWS V14.01,2013-01-18 15:49:00,
2013-01-18 09:54:00,33.9,23.8,30.21,SSW,197,9.0,27.0,66,0.00,,---,0.00,VWS V14.01,2013-01-18 15:54:00,
2013-01-18 09:59:00,34.3,24.5,30.21,WSW,240,10.8,16.2,67,0.00,,---,0.00,VWS V14.01,2013-01-18 15:59:00,
2013-01-18 10:04:00,34.6,24.4,30.21,SW,233,12.6,21.6,66,0.00,,---,0.00,VWS V14.01,2013-01-18 16:04:00,
2013-01-18 10:09:00,34.9,24.7,30.21,SW,221,19.8,19.8,66,0.00,,---,0.00,VWS V14.01,2013-01-18 16:09:00,
2013-01-18 10:14:00,35.2,25.0,30.20,SW,228,14.4,23.4,66,0.00,,---,0.00,VWS V14.01,2013-01-18 16:14:00,
2013-01-18 10:19:00,35.5,25.0,30.20,WSW,238,12.6,32.4,65,0.00,,---,0.00,VWS V14.01,2013-01-18 16:19:00,
2013-01-18 10:24:00,35.8,25.2,30.20,West,262,7.2,21.6,65,0.00,,---,0.00,VWS V14.01,2013-01-18 16:24:00,
2013-01-18 10:29:00,36.1,25.5,30.19,West,263,12.6,23.4,65,0.00,,---,0.00,VWS V14.01,2013-01-18 16:29:00,
2013-01-18 10:34:00,36.3,26.1,30.19,SSW,211,5.4,19.8,66,0.00,,---,0.00,VWS V14.01,2013-01-18 16:34:00,
2013-01-18 10:39:00,36.8,26.2,30.19,SSW,200,10.8,27.0,65,0.00,,---,0.00,VWS V14.01,2013-01-18 16:39:00,
2013-01-18 10:44:00,37.1,26.1,30.18,SSW,194,7.2,23.4,64,0.00,,---,0.00,VWS V14.01,2013-01-18 16:44:00,
2013-01-18 10:49:00,37.4,26.4,30.17,WSW,245,14.4,19.8,64,0.00,,---,0.00,VWS V14.01,2013-01-18 16:49:00,
2013-01-18 10:54:00,37.6,26.6,30.17,South,191,3.6,36.0,64,0.00,,---,0.00,VWS V14.01,2013-01-18 16:54:00,
2013-01-18 10:59:00,37.7,26.7,30.16,SW,224,10.8,27.0,64,0.00,,---,0.00,VWS V14.01,2013-01-18 16:59:00,
2013-01-18 11:04:00,37.9,26.5,30.16,SW,224,12.6,30.6,63,0.00,,---,0.00,VWS V14.01,2013-01-18 17:04:00,
2013-01-18 11:09:00,38.2,27.2,30.15,SSE,159,34.2,34.2,64,0.00,,---,0.00,VWS V14.01,2013-01-18 17:09:00,
2013-01-18 11:14:00,38.5,27.1,30.15,WSW,257,9.0,27.0,63,0.00,,---,0.00,VWS V14.01,2013-01-18 17:14:00,
2013-01-18 11:19:00,38.5,27.1,30.14,SW,214,9.0,27.0,63,0.00,,---,0.00,VWS V14.01,2013-01-18 17:19:00,
2013-01-18 11:24:00,38.7,27.3,30.14,SSW,205,10.8,27.0,63,0.00,,---,0.00,VWS V14.01,2013-01-18 17:24:00,
2013-01-18 11:29:00,38.8,27.4,30.13,South,190,16.2,28.8,63,0.00,,---,0.00,VWS V14.01,2013-01-18 17:29:00,
2013-01-18 11:34:00,39.0,27.6,30.13,SSW,194,12.6,34.2,63,0.00,,---,0.00,VWS V14.01,2013-01-18 17:34:00,
2013-01-18 11:39:00,39.2,27.8,30.12,West,274,10.8,27.0,63,0.01,,---,0.01,VWS V14.01,2013-01-18 17:39:00,
2013-01-18 11:44:00,39.5,27.7,30.12,ESE,111,14.4,27.0,62,0.01,,---,0.01,VWS V14.01,2013-01-18 17:44:00,
2013-01-18 11:49:00,39.9,28.1,30.11,South,190,12.6,28.8,62,0.01,,---,0.01,VWS V14.01,2013-01-18 17:49:00,
2013-01-18 11:54:00,40.1,28.3,30.10,WSW,240,21.6,30.6,62,0.01,,---,0.01,VWS V14.01,2013-01-18 17:54:00,
2013-01-18 12:00:00,40.3,28.5,30.10,SE,138,5.4,28.8,62,0.01,,---,0.01,VWS V14.01,2013-01-18 18:00:00,
2013-01-18 12:05:00,40.5,28.3,30.09,SSE,165,3.6,36.0,61,0.01,,---,0.01,VWS V14.01,2013-01-18 18:05:00,
2013-01-18 12:10:00,40.9,29.0,30.09,SW,219,19.8,27.0,62,0.01,,---,0.01,VWS V14.01,2013-01-18 18:10:00,
2013-01-18 12:15:00,41.2,28.9,30.08,WSW,250,3.6,28.8,61,0.01,,---,0.01,VWS V14.01,2013-01-18 18:15:00,
2013-01-18 12:20:00,41.4,29.1,30.08,SW,220,10.8,36.0,61,0.01,,---,0.01,VWS V14.01,2013-01-18 18:20:00,
2013-01-18 12:25:00,41.3,29.0,30.08,SW,228,5.4,23.4,61,0.01,,---,0.01,VWS V14.01,2013-01-18 18:25:00,
2013-01-18 12:30:00,41.6,29.3,30.07,South,187,10.8,30.6,61,0.01,,---,0.01,VWS V14.01,2013-01-18 18:30:00,
2013-01-18 12:35:00,41.9,29.6,30.06,South,191,5.4,27.0,61,0.01,,---,0.01,VWS V14.01,2013-01-18 18:35:00,
2013-01-18 12:40:00,41.9,29.6,30.06,South,183,7.2,27.0,61,0.01,,---,0.01,VWS V14.01,2013-01-18 18:40:00,
2013-01-18 12:45:00,42.1,29.8,30.06,SE,135,10.8,19.8,61,0.00,,---,0.01,VWS V14.01,2013-01-18 18:45:00,
2013-01-18 12:50:00,42.3,30.0,30.05,SW,215,16.2,23.4,61,0.00,,---,0.01,VWS V14.01,2013-01-18 18:50:00,
2013-01-18 12:55:00,42.4,30.1,30.04,WSW,243,12.6,23.4,61,0.00,,---,0.01,VWS V14.01,2013-01-18 18:55:00,
2013-01-18 13:00:00,42.7,30.4,30.04,East,84,9.0,21.6,61,0.00,,---,0.01,VWS V14.01,2013-01-18 19:00:00,
2013-01-18 13:05:00,43.0,30.3,30.03,NW,312,7.2,36.0,60,0.00,,---,0.01,VWS V14.01,2013-01-18 19:05:00,
2013-01-18 13:10:00,43.1,30.7,30.03,WSW,250,5.4,27.0,61,0.00,,---,0.01,VWS V14.01,2013-01-18 19:10:00,
2013-01-18 13:15:00,43.3,30.5,30.02,West,266,7.2,25.2,60,0.00,,---,0.01,VWS V14.01,2013-01-18 19:15:00,
2013-01-18 13:20:00,43.4,30.6,30.02,South,190,7.2,28.8,60,0.00,,---,0.01,VWS V14.01,2013-01-18 19:20:00,
2013-01-18 13:25:00,43.5,30.7,30.01,SSW,203,9.0,27.0,60,0.00,,---,0.01,VWS V14.01,2013-01-18 19:25:00,
2013-01-18 13:30:00,43.8,31.0,30.01,WSW,248,7.2,18.0,60,0.00,,---,0.01,VWS V14.01,2013-01-18 19:30:00,
2013-01-18 13:35:00,44.0,30.8,30.00,ESE,107,12.6,21.6,60,0.00,,---,0.01,VWS V14.01,2013-01-18 19:35:00,
2013-01-18 13:40:00,44.0,31.2,30.00,South,181,16.2,25.2,60,0.00,,---,0.01,VWS V14.01,2013-01-18 19:40:00,
2013-01-18 13:45:00,44.1,31.3,29.99,SW,225,7.2,27.0,60,0.00,,---,0.01,VWS V14.01,2013-01-18 19:45:00,
2013-01-18 13:50:00,44.1,30.9,29.98,South,169,18.0,34.2,60,0.00,,---,0.01,VWS V14.01,2013-01-18 19:50:00,
2013-01-18 13:55:00,44.1,30.9,29.98,SW,220,18.0,30.6,60,0.00,,---,0.01,VWS V14.01,2013-01-18 19:55:00,
2013-01-18 14:00:00,44.4,31.6,29.98,SSW,203,10.8,18.0,60,0.00,,---,0.01,VWS V14.01,2013-01-18 20:00:00,
2013-01-18 14:05:00,44.6,31.4,29.98,SW,214,10.8,27.0,60,0.00,,---,0.01,VWS V14.01,2013-01-18 20:05:00,
2013-01-18 14:10:00,44.8,31.6,29.97,West,259,3.6,25.2,60,0.00,,---,0.01,VWS V14.01,2013-01-18 20:10:00,
2013-01-18 14:15:00,45.1,31.9,29.97,WSW,248,7.2,21.6,60,0.00,,---,0.01,VWS V14.01,2013-01-18 20:15:00,
2013-01-18 14:20:00,45.3,32.0,29.97,South,177,14.4,23.4,60,0.00,,---,0.01,VWS V14.01,2013-01-18 20:20:00,
2013-01-18 14:25:00,45.3,32.0,29.96,South,187,7.2,19.8,60,0.00,,---,0.01,VWS V14.01,2013-01-18 20:25:00,
2013-01-18 14:30:00,45.5,32.2,29.95,WSW,253,5.4,27.0,60,0.00,,---,0.01,VWS V14.01,2013-01-18 20:30:00,
2013-01-18 14:35:00,45.7,32.4,29.95,ESE,120,7.2,21.6,60,0.00,,---,0.01,VWS V14.01,2013-01-18 20:35:00,
2013-01-18 14:40:00,45.9,32.6,29.95,South,173,12.6,28.8,60,0.00,,---,0.01,VWS V14.01,2013-01-18 20:40:00,
2013-01-18 14:45:00,46.1,32.4,29.94,SSW,208,16.2,23.4,59,0.00,,---,0.01,VWS V14.01,2013-01-18 20:45:00,
2013-01-18 14:50:00,46.2,32.5,29.94,SSW,201,9.0,39.6,59,0.00,,---,0.01,VWS V14.01,2013-01-18 20:50:00,
2013-01-18 14:55:00,46.4,32.3,29.94,SSE,153,10.8,21.6,58,0.00,,---,0.01,VWS V14.01,2013-01-18 20:55:00,
2013-01-18 15:00:00,46.5,32.4,29.94,WSW,250,14.4,30.6,58,0.00,,---,0.01,VWS V14.01,2013-01-18 21:00:00,
2013-01-18 15:05:00,46.7,32.6,29.93,West,259,14.4,28.8,58,0.00,,---,0.01,VWS V14.01,2013-01-18 21:05:00,
2013-01-18 15:10:00,46.6,32.5,29.93,South,188,19.8,27.0,58,0.00,,---,0.01,VWS V14.01,2013-01-18 21:10:00,
2013-01-18 15:15:00,46.5,32.8,29.94,WSW,243,7.2,16.2,59,0.00,,---,0.01,VWS V14.01,2013-01-18 21:15:00,
2013-01-18 15:20:00,46.5,32.8,29.94,SSW,201,9.0,25.2,59,0.00,,---,0.01,VWS V14.01,2013-01-18 21:20:00,
2013-01-18 15:24:00,46.7,32.6,29.94,SW,218,16.2,21.6,58,0.00,,---,0.01,VWS V14.01,2013-01-18 21:24:00,
2013-01-18 15:29:00,46.7,32.6,29.94,WSW,240,5.4,25.2,58,0.00,,---,0.01,VWS V14.01,2013-01-18 21:29:00,
2013-01-18 15:34:00,46.6,32.5,29.94,SW,233,5.4,18.0,58,0.00,,---,0.01,VWS V14.01,2013-01-18 21:34:00,
2013-01-18 15:39:00,46.7,32.6,29.94,South,181,3.6,21.6,58,0.00,,---,0.01,VWS V14.01,2013-01-18 21:39:00,
2013-01-18 15:44:00,46.6,32.5,29.94,South,188,3.6,23.4,58,0.00,,---,0.01,VWS V14.01,2013-01-18 21:44:00,
2013-01-18 15:49:00,46.7,32.6,29.94,WSW,257,3.6,23.4,58,0.00,,---,0.01,VWS V14.01,2013-01-18 21:49:00,
2013-01-18 15:54:00,46.6,32.9,29.94,WSW,243,5.4,10.8,59,0.00,,---,0.01,VWS V14.01,2013-01-18 21:54:00,
2013-01-18 15:59:00,46.4,32.3,29.94,WSW,248,12.6,21.6,58,0.00,,---,0.01,VWS V14.01,2013-01-18 21:59:00,
2013-01-18 16:04:00,46.1,32.4,29.94,NNE,22,3.6,19.8,59,0.00,,---,0.01,VWS V14.01,2013-01-18 22:04:00,
2013-01-18 16:09:00,45.8,32.5,29.94,SW,217,5.4,14.4,60,0.00,,---,0.01,VWS V14.01,2013-01-18 22:09:00,
2013-01-18 16:14:00,45.5,32.2,29.94,SSW,203,12.6,16.2,60,0.00,,---,0.01,VWS V14.01,2013-01-18 22:14:00,
2013-01-18 16:19:00,45.3,32.4,29.93,WSW,246,10.8,18.0,60,0.00,,---,0.01,VWS V14.01,2013-01-18 22:19:00,
2013-01-18 16:24:00,45.0,32.5,29.93,WSW,252,1.8,18.0,61,0.00,,---,0.01,VWS V14.01,2013-01-18 22:24:00,
2013-01-18 16:29:00,44.8,32.3,29.93,SSW,212,9.0,23.4,61,0.00,,---,0.01,VWS V14.01,2013-01-18 22:29:00,
2013-01-18 16:34:00,44.7,32.2,29.93,South,186,14.4,21.6,61,0.00,,---,0.01,VWS V14.01,2013-01-18 22:34:00,
2013-01-18 16:39:00,44.3,32.2,29.93,West,281,7.2,16.2,62,0.00,,---,0.01,VWS V14.01,2013-01-18 22:39:00,
2013-01-18 16:44:00,44.1,32.0,29.93,SW,226,12.6,18.0,62,0.00,,---,0.01,VWS V14.01,2013-01-18 22:44:00,
2013-01-18 16:49:00,43.8,32.1,29.93,WSW,249,12.6,21.6,63,0.00,,---,0.01,VWS V14.01,2013-01-18 22:49:00,
2013-01-18 16:54:00,43.5,31.9,29.93,South,190,5.4,12.6,63,0.00,,---,0.01,VWS V14.01,2013-01-18 22:54:00,
2013-01-18 16:59:00,43.3,32.0,29.93,SE,131,3.6,21.6,64,0.00,,---,0.01,VWS V14.01,2013-01-18 22:59:00,
2013-01-18 17:04:00,43.1,31.8,29.93,SSW,195,7.2,16.2,64,0.00,,---,0.01,VWS V14.01,2013-01-18 23:04:00,
2013-01-18 17:09:00,42.8,31.9,29.93,South,183,5.4,14.4,65,0.00,,---,0.01,VWS V14.01,2013-01-18 23:09:00,
2013-01-18 17:14:00,42.6,31.7,29.93,West,274,10.8,14.4,65,0.00,,---,0.01,VWS V14.01,2013-01-18 23:14:00,
2013-01-18 17:19:00,42.4,31.9,29.93,SW,217,12.6,16.2,66,0.00,,---,0.01,VWS V14.01,2013-01-18 23:19:00,
2013-01-18 17:24:00,42.2,31.7,29.93,NW,307,1.8,16.2,66,0.00,,---,0.01,VWS V14.01,2013-01-18 23:24:00,
2013-01-18 17:29:00,42.0,31.5,29.93,WNW,288,1.8,16.2,66,0.00,,---,0.01,VWS V14.01,2013-01-18 23:29:00,
2013-01-18 17:34:00,41.9,31.7,29.93,West,265,3.6,9.0,67,0.00,,---,0.01,VWS V14.01,2013-01-18 23:34:00,
2013-01-18 17:39:00,41.8,31.6,29.93,SW,228,1.8,14.4,67,0.00,,---,0.01,VWS V14.01,2013-01-18 23:39:00,
2013-01-18 17:44:00,41.7,31.5,29.93,South,187,10.8,19.8,67,0.00,,---,0.01,VWS V14.01,2013-01-18 23:44:00,
2013-01-18 17:49:00,41.8,31.6,29.93,SSW,193,3.6,10.8,67,0.00,,---,0.01,VWS V14.01,2013-01-18 23:49:00,
2013-01-18 17:54:00,41.8,31.6,29.93,SSW,212,3.6,12.6,67,0.00,,---,0.01,VWS V14.01,2013-01-18 23:54:00,
2013-01-18 17:59:00,41.9,31.7,29.93,SW,226,1.8,12.6,67,0.00,,---,0.01,VWS V14.01,2013-01-18 23:59:00,
2013-01-18 18:04:00,41.9,31.7,29.93,West,259,5.4,18.0,67,0.00,,---,0.01,VWS V14.01,2013-01-19 00:04:00,
2013-01-18 18:09:00,42.0,31.5,29.93,SW,224,1.8,14.4,66,0.00,,---,0.01,VWS V14.01,2013-01-19 00:09:00,
2013-01-18 18:14:00,42.0,31.5,29.93,South,177,3.6,16.2,66,0.00,,---,0.01,VWS V14.01,2013-01-19 00:14:00,
2013-01-18 18:19:00,42.0,31.5,29.93,SW,232,3.6,12.6,66,0.00,,---,0.01,VWS V14.01,2013-01-19 00:19:00,
2013-01-18 18:24:00,42.0,31.5,29.93,WSW,252,3.6,10.8,66,0.00,,---,0.01,VWS V14.01,2013-01-19 00:24:00,
2013-01-18 18:29:00,41.9,31.4,29.93,SSW,211,3.6,12.6,66,0.00,,---,0.01,VWS V14.01,2013-01-19 00:29:00,
2013-01-18 18:34:00,41.9,31.4,29.93,SSE,153,7.2,23.4,66,0.00,,---,0.01,VWS V14.01,2013-01-19 00:34:00,
2013-01-18 18:39:00,41.9,31.4,29.93,SSW,194,10.8,16.2,66,0.00,,---,0.01,VWS V14.01,2013-01-19 00:39:00,
2013-01-18 18:44:00,41.9,31.4,29.93,SSW,198,3.6,14.4,66,0.00,,---,0.01,VWS V14.01,2013-01-19 00:44:00,
2013-01-18 18:49:00,42.0,31.1,29.93,SW,219,1.8,23.4,65,0.00,,---,0.01,VWS V14.01,2013-01-19 00:49:00,
2013-01-18 18:54:00,42.1,31.2,29.93,SSW,192,3.6,27.0,65,0.00,,---,0.01,VWS V14.01,2013-01-19 00:54:00,
2013-01-18 18:59:00,42.1,31.2,29.93,SE,145,5.4,32.4,65,0.00,,---,0.01,VWS V14.01,2013-01-19 00:59:00,
2013-01-18 19:04:00,42.2,31.0,29.93,ESE,114,1.8,21.6,64,0.00,,---,0.01,VWS V14.01,2013-01-19 01:04:00,
2013-01-18 19:09:00,42.2,31.0,29.93,SSE,162,7.2,23.4,64,0.00,,---,0.01,VWS V14.01,2013-01-19 01:09:00,
2013-01-18 19:14:00,42.3,31.1,29.93,SW,218,3.6,12.6,64,0.00,,---,0.01,VWS V14.01,2013-01-19 01:14:00,
2013-01-18 19:19:00,42.4,30.8,29.93,WNW,291,10.8,16.2,63,0.00,,---,0.01,VWS V14.01,2013-01-19 01:19:00,
2013-01-18 19:24:00,42.5,30.9,29.93,SW,225,14.4,21.6,63,0.00,,---,0.01,VWS V14.01,2013-01-19 01:24:00,
2013-01-18 19:29:00,42.5,30.9,29.92,South,181,12.6,19.8,63,0.00,,---,0.01,VWS V14.01,2013-01-19 01:29:00,
2013-01-18 19:34:00,42.5,30.9,29.92,WNW,298,9.0,16.2,63,0.00,,---,0.01,VWS V14.01,2013-01-19 01:34:00,
2013-01-18 19:39:00,42.5,30.9,29.92,WSW,246,10.8,16.2,63,0.00,,---,0.01,VWS V14.01,2013-01-19 01:39:00,
2013-01-18 19:44:00,42.4,30.8,29.93,SSW,195,7.2,25.2,63,0.00,,---,0.01,VWS V14.01,2013-01-19 01:44:00,
2013-01-18 19:49:00,42.3,30.7,29.92,SSE,166,1.8,16.2,63,0.00,,---,0.01,VWS V14.01,2013-01-19 01:49:00,
2013-01-18 19:54:00,42.3,30.7,29.92,SSW,208,9.0,14.4,63,0.00,,---,0.01,VWS V14.01,2013-01-19 01:54:00,
2013-01-18 19:59:00,42.2,30.6,29.92,WSW,253,7.2,10.8,63,0.00,,---,0.01,VWS V14.01,2013-01-19 01:59:00,
2013-01-18 20:04:00,42.1,30.5,29.92,WSW,252,5.4,18.0,63,0.00,,---,0.01,VWS V14.01,2013-01-19 02:04:00,
2013-01-18 20:09:00,42.1,30.5,29.92,SSE,158,5.4,14.4,63,0.00,,---,0.01,VWS V14.01,2013-01-19 02:09:00,
2013-01-18 20:14:00,42.1,30.5,29.92,WSW,257,3.6,18.0,63,0.00,,---,0.01,VWS V14.01,2013-01-19 02:14:00,
2013-01-18 20:19:00,41.9,30.3,29.92,WSW,253,7.2,14.4,63,0.00,,---,0.01,VWS V14.01,2013-01-19 02:19:00,
2013-01-18 20:24:00,41.9,30.3,29.92,SSW,198,3.6,14.4,63,0.00,,---,0.01,VWS V14.01,2013-01-19 02:24:00,
2013-01-18 20:29:00,41.9,30.3,29.92,SSE,160,9.0,16.2,63,0.00,,---,0.01,VWS V14.01,2013-01-19 02:29:00,
2013-01-18 20:34:00,41.7,30.1,29.92,South,183,12.6,12.6,63,0.00,,---,0.01,VWS V14.01,2013-01-19 02:34:00,
2013-01-18 20:39:00,41.6,30.4,29.92,WSW,252,3.6,19.8,64,0.00,,---,0.01,VWS V14.01,2013-01-19 02:39:00,
2013-01-18 20:44:00,41.5,30.3,29.91,SW,236,3.6,14.4,64,0.00,,---,0.01,VWS V14.01,2013-01-19 02:44:00,
2013-01-18 20:49:00,41.3,30.1,29.91,ESE,104,3.6,10.8,64,0.00,,---,0.01,VWS V14.01,2013-01-19 02:49:00,
2013-01-18 20:54:00,41.2,30.4,29.91,WSW,246,5.4,12.6,65,0.00,,---,0.01,VWS V14.01,2013-01-19 02:54:00,
2013-01-18 20:59:00,41.0,30.2,29.91,WSW,241,10.8,19.8,65,0.00,,---,0.01,VWS V14.01,2013-01-19 02:59:00,
2013-01-18 21:04:00,40.9,30.1,29.91,SSE,155,5.4,16.2,65,0.00,,---,0.01,VWS V14.01,2013-01-19 03:04:00,
2013-01-18 21:09:00,40.8,30.0,29.91,SSW,194,1.8,12.6,65,0.00,,---,0.01,VWS V14.01,2013-01-19 03:09:00,
2013-01-18 21:14:00,40.6,30.2,29.91,SE,138,3.6,16.2,66,0.00,,---,0.01,VWS V14.01,2013-01-19 03:14:00,
2013-01-18 21:19:00,40.5,30.1,29.91,WSW,240,5.4,12.6,66,0.00,,---,0.01,VWS V14.01,2013-01-19 03:19:00,
2013-01-18 21:24:00,40.5,30.1,29.91,SSE,156,5.4,10.8,66,0.00,,---,0.01,VWS V14.01,2013-01-19 03:24:00,
2013-01-18 21:29:00,40.4,30.0,29.91,SW,217,5.4,10.8,66,0.00,,---,0.01,VWS V14.01,2013-01-19 03:29:00,
2013-01-18 21:34:00,40.3,29.9,29.91,SW,219,3.6,9.0,66,0.00,,---,0.01,VWS V14.01,2013-01-19 03:34:00,
2013-01-18 21:39:00,40.3,29.9,29.91,SSW,203,3.6,10.8,66,0.00,,---,0.01,VWS V14.01,2013-01-19 03:39:00,
2013-01-18 21:44:00,40.4,30.0,29.91,SSW,208,5.4,18.0,66,0.00,,---,0.01,VWS V14.01,2013-01-19 03:44:00,
2013-01-18 21:49:00,40.3,29.9,29.91,WSW,248,5.4,9.0,66,0.00,,---,0.01,VWS V14.01,2013-01-19 03:49:00,
2013-01-18 21:54:00,40.4,30.0,29.91,WSW,255,7.2,7.2,66,0.00,,---,0.01,VWS V14.01,2013-01-19 03:54:00,
2013-01-18 21:59:00,40.4,30.0,29.91,SSW,211,1.8,12.6,66,0.00,,---,0.01,VWS V14.01,2013-01-19 03:59:00,
2013-01-18 22:04:00,40.3,29.9,29.91,SSE,162,5.4,12.6,66,0.00,,---,0.01,VWS V14.01,2013-01-19 04:04:00,
2013-01-18 22:09:00,40.4,30.0,29.91,SW,222,5.4,12.6,66,0.00,,---,0.01,VWS V14.01,2013-01-19 04:09:00,
2013-01-18 22:14:00,40.6,30.2,29.90,WSW,240,5.4,16.2,66,0.00,,---,0.01,VWS V14.01,2013-01-19 04:14:00,
2013-01-18 22:19:00,40.6,30.2,29.90,WSW,253,5.4,10.8,66,0.00,,---,0.01,VWS V14.01,2013-01-19 04:19:00,
2013-01-18 22:24:00,40.6,30.2,29.90,SSW,201,1.8,10.8,66,0.00,,---,0.01,VWS V14.01,2013-01-19 04:24:00,
2013-01-18 22:29:00,40.5,30.1,29.90,SSW,205,5.4,10.8,66,0.00,,---,0.01,VWS V14.01,2013-01-19 04:29:00,
2013-01-18 22:34:00,40.4,30.0,29.90,SSW,198,1.8,9.0,66,0.00,,---,0.01,VWS V14.01,2013-01-19 04:34:00,
2013-01-18 22:39:00,40.5,30.1,29.90,SE,136,1.8,10.8,66,0.00,,---,0.01,VWS V14.01,2013-01-19 04:39:00,
2013-01-18 22:44:00,40.4,30.0,29.90,WNW,285,5.4,9.0,66,0.00,,---,0.01,VWS V14.01,2013-01-19 04:44:00,
2013-01-18 22:49:00,40.3,30.2,29.90,SW,219,1.8,7.2,67,0.00,,---,0.01,VWS V14.01,2013-01-19 04:49:00,
2013-01-18 22:54:00,40.1,30.0,29.90,SW,217,1.8,16.2,67,0.00,,---,0.01,VWS V14.01,2013-01-19 04:54:00,
2013-01-18 22:59:00,39.9,29.8,29.91,West,277,1.8,9.0,67,0.00,,---,0.01,VWS V14.01,2013-01-19 04:59:00,
2013-01-18 23:00:00,39.9,30.2,29.91,West,281,5.4,12.6,68,0.00,,---,0.01,VWS V14.01,2013-01-19 05:00:00,
2013-01-18 23:01:00,39.9,30.2,29.91,South,174,1.8,3.6,68,0.00,,---,0.01,VWS V14.01,2013-01-19 05:01:00,
2013-01-18 23:03:00,39.9,30.2,29.91,West,267,3.6,9.0,68,0.00,,---,0.01,VWS V14.01,2013-01-19 05:03:00,
2013-01-18 23:08:00,39.8,30.1,29.90,SW,231,5.4,7.2,68,0.00,,---,0.01,VWS V14.01,2013-01-19 05:08:00,
2013-01-18 23:13:00,39.8,30.1,29.90,SW,228,3.6,9.0,68,0.00,,---,0.01,VWS V14.01,2013-01-19 05:13:00,
2013-01-18 23:18:00,39.8,30.1,29.90,SSW,208,1.8,9.0,68,0.00,,---,0.01,VWS V14.01,2013-01-19 05:18:00,
2013-01-18 23:23:00,39.6,29.9,29.91,SW,219,3.6,9.0,68,0.00,,---,0.01,VWS V14.01,2013-01-19 05:23:00,
2013-01-18 23:28:00,39.6,29.9,29.90,SE,134,5.4,9.0,68,0.00,,---,0.01,VWS V14.01,2013-01-19 05:28:00,
2013-01-18 23:33:00,39.6,29.9,29.91,SW,217,3.6,5.4,68,0.00,,---,0.01,VWS V14.01,2013-01-19 05:33:00,
2013-01-18 23:38:00,39.4,30.0,29.91,South,186,1.8,9.0,69,0.00,,---,0.01,VWS V14.01,2013-01-19 05:38:00,
2013-01-18 23:43:00,39.2,29.8,29.90,SE,135,1.8,7.2,69,0.00,,---,0.01,VWS V14.01,2013-01-19 05:43:00,
2013-01-18 23:48:00,39.0,29.6,29.91,West,260,3.6,7.2,69,0.00,,---,0.01,VWS V14.01,2013-01-19 05:48:00,
2013-01-18 23:53:00,39.0,30.0,29.91,SW,226,1.8,9.0,70,0.00,,---,0.01,VWS V14.01,2013-01-19 05:53:00,
2013-01-18 23:58:00,39.0,30.0,29.91,SW,228,5.4,7.2,70,0.00,,---,0.01,VWS V14.01,2013-01-19 05:58:00,